Time;durP1;ratioP1;P1;durP2;ratioP2;P2;SDS_P1;SDS_P2;PMS_P1;PMS_P2;Temp;Humidity;BMP_temperature;BMP_pressure;BME280_temperature;BME280_humidity;BME280_pressure;Samples;Min_cycle;Max_cycle;Signal;HPM_P1;HPM_P2
2023/12/28 00:00:42;;;;;;;2.00;1.90;;;16.20;67.90;17.00;100305.00;;;;5074684;28;20321;-48
2023/12/28 00:03:08;;;;;;;2.53;2.10;;;16.20;68.00;17.00;100325.00;;;;5055551;28;20184;-49
2023/12/28 00:05:34;;;;;;;2.30;2.10;;;16.10;67.80;17.00;100332.00;;;;5079808;28;20221;-49
2023/12/28 00:08:00;;;;;;;2.10;1.90;;;16.20;68.00;17.00;100325.00;;;;5081392;28;20191;-47
2023/12/28 00:10:27;;;;;;;2.30;2.10;;;16.10;67.90;17.00;100332.00;;;;5078104;28;20206;-48
2023/12/28 00:12:53;;;;;;;2.20;2.00;;;16.10;67.80;17.00;100335.00;;;;5068391;28;20641;-48
2023/12/28 00:15:19;;;;;;;2.17;1.97;;;16.20;68.00;17.00;100345.00;;;;5078512;28;20227;-49
2023/12/28 00:17:44;;;;;;;2.10;1.90;;;16.10;67.90;17.00;100350.00;;;;5081549;28;20174;-48
2023/12/28 00:20:11;;;;;;;2.13;2.03;;;16.10;67.90;17.00;100358.00;;;;5081494;28;20322;-49
2023/12/28 00:22:37;;;;;;;2.00;1.90;;;16.10;67.90;17.00;100364.00;;;;5076234;28;20174;-49
2023/12/28 00:25:04;;;;;;;2.17;2.03;;;16.10;67.90;17.00;100354.00;;;;5078054;28;20187;-48
2023/12/28 00:27:30;;;;;;;2.30;2.10;;;16.10;67.90;16.90;100358.00;;;;5081389;28;20216;-48
2023/12/28 00:29:56;;;;;;;2.27;2.10;;;16.10;68.00;16.90;100363.00;;;;5079366;28;20181;-49
2023/12/28 00:32:21;;;;;;;2.63;2.10;;;16.00;67.80;16.90;100366.00;;;;5080915;28;20182;-49
2023/12/28 00:34:47;;;;;;;2.00;1.90;;;16.10;68.00;16.90;100379.00;;;;5058776;28;20214;-48
2023/12/28 00:37:13;;;;;;;2.60;2.10;;;16.00;67.80;16.90;100370.00;;;;5077589;28;20607;-48
2023/12/28 00:39:40;;;;;;;2.23;2.03;;;16.00;67.80;16.90;100368.00;;;;5080306;28;20174;-48
2023/12/28 00:42:06;;;;;;;2.10;2.00;;;16.00;67.80;16.90;100366.00;;;;5081140;28;20259;-48
2023/12/28 00:44:32;;;;;;;2.27;2.03;;;16.00;67.90;16.80;100372.00;;;;5077468;28;20194;-49
2023/12/28 00:46:57;;;;;;;2.07;1.87;;;16.00;68.10;16.80;100371.00;;;;5077285;28;20194;-47
2023/12/28 00:49:23;;;;;;;2.27;2.07;;;16.00;68.00;16.90;100389.00;;;;5078034;28;20247;-48
2023/12/28 00:51:49;;;;;;;2.20;2.00;;;16.00;68.00;16.90;100379.00;;;;5080804;28;20196;-49
2023/12/28 00:54:14;;;;;;;2.30;2.10;;;16.00;68.10;16.90;100397.00;;;;5079746;28;20210;-48
2023/12/28 00:56:40;;;;;;;2.30;2.10;;;16.00;68.00;16.90;100397.00;;;;5077044;28;20171;-49
2023/12/28 00:59:06;;;;;;;2.30;2.10;;;16.00;68.00;16.90;100387.00;;;;5060574;28;20694;-48
2023/12/28 01:01:32;;;;;;;2.00;1.90;;;16.00;67.90;16.90;100401.00;;;;5075436;28;20211;-49
2023/12/28 01:03:57;;;;;;;2.30;2.10;;;16.00;67.80;16.90;100388.00;;;;5075831;28;20185;-48
2023/12/28 01:06:27;;;;;;;2.07;1.97;;;16.00;67.80;16.90;100401.00;;;;5076520;28;20178;-48
2023/12/28 01:08:53;;;;;;;2.00;1.90;;;16.00;67.80;16.90;100405.00;;;;5078994;28;20660;-48
2023/12/28 01:11:19;;;;;;;2.20;2.00;;;16.00;67.80;16.90;100416.00;;;;5077235;28;20208;-48
2023/12/28 01:13:45;;;;;;;2.10;2.00;;;16.00;67.80;16.90;100411.00;;;;5075553;28;20206;-49
2023/12/28 01:16:13;;;;;;;2.20;2.00;;;16.00;67.70;16.90;100412.00;;;;5075519;28;20521;-48
2023/12/28 01:18:39;;;;;;;2.00;1.90;;;16.00;67.70;16.90;100412.00;;;;5080424;28;20180;-48
2023/12/28 01:21:05;;;;;;;2.10;1.90;;;16.00;67.50;16.90;100405.00;;;;5088709;28;20205;-48
2023/12/28 01:23:31;;;;;;;2.10;2.00;;;16.00;67.30;16.90;100404.00;;;;5076279;28;20183;-48
2023/12/28 01:25:57;;;;;;;2.20;2.00;;;16.10;67.40;16.90;100414.00;;;;5076101;28;20230;-48
2023/12/28 01:28:23;;;;;;;2.23;2.00;;;16.10;67.40;17.00;100414.00;;;;5076622;28;20650;-48
2023/12/28 01:30:49;;;;;;;2.40;1.90;;;16.00;67.30;17.00;100410.00;;;;5051162;28;20217;-48
2023/12/28 01:33:14;;;;;;;2.30;2.00;;;16.10;67.30;17.00;100401.00;;;;5082479;28;20207;-49
2023/12/28 01:35:41;;;;;;;2.33;2.00;;;16.00;68.00;17.00;100410.00;;;;5084660;28;20179;-48
2023/12/28 01:38:07;;;;;;;2.10;2.00;;;16.00;67.10;16.90;100421.00;;;;5075284;28;20601;-48
2023/12/28 01:40:32;;;;;;;2.03;1.93;;;16.10;67.10;17.00;100416.00;;;;5076817;28;20200;-48
2023/12/28 01:42:58;;;;;;;2.30;2.10;;;16.00;66.90;17.00;100418.00;;;;5078713;28;20202;-48
2023/12/28 01:45:24;;;;;;;2.07;1.97;;;16.00;66.90;17.00;100373.00;;;;5051177;28;20191;-49
2023/12/28 01:47:50;;;;;;;2.00;1.90;;;16.00;66.90;17.00;100425.00;;;;5078538;28;20609;-49
2023/12/28 01:50:15;;;;;;;2.30;2.10;;;16.00;66.90;16.90;100435.00;;;;5051350;28;20696;-49
2023/12/28 01:52:41;;;;;;;2.10;1.90;;;16.00;67.00;16.90;100418.00;;;;5078341;28;20176;-49
2023/12/28 01:55:07;;;;;;;2.10;1.90;;;16.00;66.90;16.90;100429.00;;;;5078468;28;20203;-48
2023/12/28 01:57:33;;;;;;;2.07;1.90;;;16.00;67.00;16.90;100428.00;;;;5074770;28;20656;-48
2023/12/28 02:00:01;;;;;;;2.20;2.10;;;16.00;66.90;16.90;100450.00;;;;5049008;28;20179;-48
2023/12/28 02:02:27;;;;;;;1.90;1.80;;;16.00;66.90;16.90;100437.00;;;;5076237;28;20185;-48
2023/12/28 02:04:53;;;;;;;2.00;1.90;;;16.00;66.90;16.90;100432.00;;;;5078466;28;20300;-48
2023/12/28 02:07:20;;;;;;;2.00;1.90;;;16.00;66.90;16.90;100434.00;;;;5052809;28;20189;-48
2023/12/28 02:09:46;;;;;;;1.90;1.80;;;16.00;66.90;16.90;100433.00;;;;5040458;28;20192;-49
2023/12/28 02:12:12;;;;;;;2.03;1.90;;;16.00;66.90;16.90;100425.00;;;;5074808;28;20246;-49
2023/12/28 02:14:37;;;;;;;1.90;1.80;;;16.00;66.90;16.90;100444.00;;;;5077586;28;20757;-49
2023/12/28 02:17:28;;;;;;;1.80;1.70;;;16.00;66.90;16.90;100424.00;;;;5078424;28;20212;-48
2023/12/28 02:19:54;;;;;;;2.20;2.00;;;16.00;66.90;16.90;100433.00;;;;5063337;28;20192;-49
2023/12/28 02:22:20;;;;;;;2.10;2.00;;;16.00;66.90;16.90;100430.00;;;;5075401;28;20207;-48
2023/12/28 02:24:55;;;;;;;2.20;2.00;;;15.90;66.80;16.80;100437.00;;;;5066741;28;20196;-48
2023/12/28 02:27:21;;;;;;;2.00;1.90;;;15.90;66.80;16.80;100435.00;;;;5076303;28;20181;-49
2023/12/28 02:29:47;;;;;;;2.20;2.00;;;15.90;66.80;16.80;100434.00;;;;5055803;28;20184;-48
2023/12/28 02:32:12;;;;;;;2.00;1.90;;;15.90;66.80;16.80;100436.00;;;;5082580;28;20183;-49
2023/12/28 02:34:39;;;;;;;1.90;1.80;;;15.90;66.80;16.80;100416.00;;;;5076695;28;20210;-48
2023/12/28 02:37:05;;;;;;;1.90;1.70;;;15.90;66.70;16.80;100432.00;;;;5037314;28;20185;-48
2023/12/28 02:39:31;;;;;;;2.10;2.00;;;15.90;66.70;16.80;100438.00;;;;5033913;28;20193;-47
2023/12/28 02:41:57;;;;;;;1.90;1.80;;;15.90;66.80;16.80;100428.00;;;;5040624;28;20600;-48
2023/12/28 02:44:22;;;;;;;1.70;1.60;;;15.90;66.80;16.80;100436.00;;;;5050143;28;20306;-49
2023/12/28 02:46:48;;;;;;;2.47;1.90;;;15.90;66.80;16.80;100438.00;;;;5043593;28;20272;-48
2023/12/28 02:49:15;;;;;;;1.90;1.80;;;15.90;66.80;16.80;100420.00;;;;5078185;28;20184;-48
2023/12/28 02:51:42;;;;;;;2.10;2.00;;;15.90;66.90;16.80;100441.00;;;;5081476;28;20195;-48
2023/12/28 02:54:08;;;;;;;1.90;1.80;;;15.80;66.80;16.80;100434.00;;;;5081450;28;20210;-48
2023/12/28 02:56:34;;;;;;;1.93;1.83;;;15.90;66.90;16.80;100435.00;;;;5077804;28;20247;-49
2023/12/28 02:58:59;;;;;;;1.80;1.70;;;15.80;66.70;16.80;100425.00;;;;5077991;28;20279;-48
2023/12/28 03:01:25;;;;;;;2.10;1.90;;;15.80;66.80;16.70;100422.00;;;;5078941;28;20195;-48
2023/12/28 03:03:51;;;;;;;2.03;1.90;;;15.80;66.80;16.80;100421.00;;;;5081761;28;20182;-48
2023/12/28 03:06:17;;;;;;;1.90;1.80;;;15.80;66.70;16.80;100417.00;;;;5054939;28;20636;-48
2023/12/28 03:08:42;;;;;;;1.90;1.80;;;15.80;66.80;16.70;100421.00;;;;5077090;28;20178;-48
2023/12/28 03:11:08;;;;;;;2.00;1.60;;;15.80;66.80;16.70;100410.00;;;;5087788;28;20232;-48
2023/12/28 03:13:34;;;;;;;1.87;1.77;;;15.80;66.80;16.70;100417.00;;;;5083085;28;20198;-49
2023/12/28 03:15:59;;;;;;;1.90;1.80;;;15.80;66.70;16.70;100406.00;;;;5082405;28;20553;-49
2023/12/28 03:18:25;;;;;;;1.80;1.70;;;15.80;66.70;16.70;100404.00;;;;5072473;28;20197;-49
2023/12/28 03:20:51;;;;;;;1.80;1.70;;;15.80;66.70;16.70;100419.00;;;;5082206;28;20198;-49
2023/12/28 03:23:16;;;;;;;1.73;1.63;;;15.80;66.80;16.70;100411.00;;;;5085266;28;20235;-50
2023/12/28 03:25:42;;;;;;;1.70;1.60;;;15.80;66.80;16.70;100413.00;;;;5086498;28;20690;-48
2023/12/28 03:28:08;;;;;;;1.90;1.80;;;15.80;66.70;16.70;100420.00;;;;5077929;28;20205;-48
2023/12/28 03:30:34;;;;;;;1.90;1.80;;;15.80;66.80;16.70;100424.00;;;;5072893;28;20214;-48
2023/12/28 03:32:59;;;;;;;1.70;1.60;;;15.80;66.80;16.70;100421.00;;;;5080978;28;20210;-48
2023/12/28 03:35:25;;;;;;;1.67;1.57;;;15.70;66.70;16.70;100431.00;;;;5085159;28;20557;-49
2023/12/28 03:37:51;;;;;;;1.63;1.53;;;15.70;66.70;16.70;100427.00;;;;5085095;28;20184;-48
2023/12/28 03:40:16;;;;;;;1.60;1.50;;;15.70;66.80;16.40;100424.00;;;;5076671;28;20212;-48
2023/12/28 03:42:44;;;;;;;1.50;1.40;;;15.70;66.80;16.70;100420.00;;;;5080935;28;20178;-48
2023/12/28 03:45:09;;;;;;;1.70;1.60;;;15.70;66.70;16.60;100421.00;;;;5080735;28;20191;-48
2023/12/28 03:47:35;;;;;;;1.63;1.53;;;15.70;66.70;16.60;100425.00;;;;5077960;28;20555;-48
2023/12/28 03:50:01;;;;;;;1.80;1.70;;;15.70;67.00;16.60;100423.00;;;;5077866;28;20198;-48
2023/12/28 03:52:29;;;;;;;1.60;1.50;;;15.70;67.00;16.60;100343.00;;;;5078116;28;20186;-49
2023/12/28 03:54:55;;;;;;;1.80;1.70;;;15.70;67.00;16.60;100423.00;;;;5080471;28;20222;-48
2023/12/28 03:57:21;;;;;;;1.70;1.60;;;15.60;67.00;16.60;100427.00;;;;5079145;28;20200;-49
2023/12/28 03:59:47;;;;;;;1.80;1.70;;;15.60;67.00;16.60;100416.00;;;;5076092;28;20256;-48
2023/12/28 04:02:13;;;;;;;1.60;1.50;;;15.60;67.00;16.60;100421.00;;;;5077688;28;20179;-49
2023/12/28 04:04:39;;;;;;;1.73;1.63;;;15.60;67.00;16.50;100424.00;;;;5080776;28;20189;-48
2023/12/28 04:07:07;;;;;;;1.50;1.40;;;15.60;67.10;16.60;100428.00;;;;5055971;28;20265;-48
2023/12/28 04:09:33;;;;;;;1.60;1.50;;;15.60;67.10;16.50;100430.00;;;;5079941;28;20189;-49
2023/12/28 04:11:59;;;;;;;1.60;1.50;;;15.60;67.10;16.50;100425.00;;;;5082037;28;20200;-49
2023/12/28 04:14:25;;;;;;;1.60;1.50;;;15.60;67.10;16.50;100416.00;;;;5078071;28;20627;-48
2023/12/28 04:16:50;;;;;;;1.93;1.70;;;15.60;67.10;16.50;100418.00;;;;5082327;28;20172;-48
2023/12/28 04:19:16;;;;;;;1.60;1.50;;;15.50;67.00;16.50;100408.00;;;;5079463;28;20549;-48
2023/12/28 04:21:45;;;;;;;1.73;1.63;;;15.50;67.10;16.50;100416.00;;;;5056240;28;20196;-49
2023/12/28 04:24:10;;;;;;;1.67;1.57;;;15.50;67.20;16.50;100408.00;;;;5055034;28;20184;-49
2023/12/28 04:26:36;;;;;;;1.60;1.50;;;15.50;67.20;16.50;100417.00;;;;5079873;28;20265;-48
2023/12/28 04:29:02;;;;;;;1.47;1.47;;;15.50;67.30;16.40;100410.00;;;;5075425;28;20189;-49
2023/12/28 04:31:28;;;;;;;1.77;1.67;;;15.50;67.30;16.40;100422.00;;;;5076076;28;20220;-48
2023/12/28 04:33:54;;;;;;;2.70;1.50;;;15.50;67.50;16.40;100411.00;;;;5072852;28;20224;-49
2023/12/28 04:36:19;;;;;;;1.60;1.50;;;15.50;67.30;16.40;100400.00;;;;5071230;28;20209;-49
2023/12/28 04:38:45;;;;;;;1.77;1.67;;;15.50;67.30;16.40;100398.00;;;;5073649;28;20256;-49
2023/12/28 04:41:11;;;;;;;1.63;1.53;;;15.50;67.30;16.40;100396.00;;;;5079985;28;20193;-49
2023/12/28 04:43:38;;;;;;;3.00;1.60;;;15.50;67.30;16.40;100409.00;;;;5085176;28;20190;-49
2023/12/28 04:46:04;;;;;;;3.00;1.80;;;15.50;67.30;16.40;100403.00;;;;5054888;28;20219;-49
2023/12/28 04:48:31;;;;;;;1.70;1.60;;;15.50;67.40;16.40;100405.00;;;;5078276;28;20232;-48
2023/12/28 04:50:57;;;;;;;1.60;1.50;;;15.40;67.30;16.40;100414.00;;;;5057025;28;20763;-51
2023/12/28 04:53:22;;;;;;;1.70;1.60;;;15.40;67.40;16.40;100414.00;;;;5075399;28;20209;-52
2023/12/28 04:55:48;;;;;;;1.67;1.57;;;15.50;67.50;16.40;100412.00;;;;5074900;28;20174;-49
2023/12/28 04:58:14;;;;;;;1.60;1.50;;;15.40;67.40;16.40;100427.00;;;;5079472;28;20174;-48
2023/12/28 05:00:39;;;;;;;1.70;1.60;;;15.40;67.40;16.30;100428.00;;;;5069358;28;20659;-48
2023/12/28 05:03:06;;;;;;;1.70;1.53;;;15.40;67.40;16.30;100428.00;;;;5082958;28;20174;-49
2023/12/28 05:05:32;;;;;;;1.87;1.77;;;15.40;67.40;16.30;100429.00;;;;5052424;28;20185;-48
2023/12/28 05:07:58;;;;;;;2.43;1.43;;;15.40;67.40;16.30;100421.00;;;;5080313;28;20200;-49
2023/12/28 05:10:23;;;;;;;1.60;1.50;;;15.40;67.50;16.30;100419.00;;;;5079722;28;20635;-48
2023/12/28 05:12:49;;;;;;;1.80;1.60;;;15.30;67.40;16.30;100435.00;;;;5075198;28;20182;-48
2023/12/28 05:15:15;;;;;;;1.80;1.70;;;15.40;67.60;16.30;100423.00;;;;5059479;28;20201;-49
2023/12/28 05:17:41;;;;;;;2.10;1.63;;;15.40;67.40;16.30;100424.00;;;;5054600;28;20172;-49
2023/12/28 05:20:07;;;;;;;1.90;1.50;;;15.40;67.40;16.30;100432.00;;;;5076866;28;20568;-49
2023/12/28 05:22:33;;;;;;;1.93;1.60;;;15.40;67.50;16.30;100444.00;;;;5069281;28;20231;-49
2023/12/28 05:24:59;;;;;;;4.30;1.60;;;15.40;67.60;16.30;100437.00;;;;5078782;28;20260;-48
2023/12/28 05:27:24;;;;;;;1.80;1.70;;;15.40;67.60;16.30;100450.00;;;;5076742;28;20173;-49
2023/12/28 05:29:50;;;;;;;2.07;1.60;;;15.40;67.60;16.30;100444.00;;;;5073246;28;20182;-49
2023/12/28 05:32:16;;;;;;;2.13;1.50;;;15.40;67.70;16.30;100451.00;;;;5075735;28;20663;-49
2023/12/28 05:34:42;;;;;;;1.70;1.60;;;15.30;67.60;16.30;100445.00;;;;5074589;28;20273;-49
2023/12/28 05:37:07;;;;;;;2.03;1.60;;;15.30;67.50;16.30;100450.00;;;;5075815;28;20189;-49
2023/12/28 05:39:33;;;;;;;4.90;1.73;;;15.30;67.60;16.30;100454.00;;;;5077274;28;20169;-48
2023/12/28 05:41:59;;;;;;;5.00;2.13;;;15.30;67.50;16.30;100445.00;;;;5079114;28;20211;-49
2023/12/28 05:44:25;;;;;;;6.00;2.07;;;15.40;67.50;16.30;100465.00;;;;5051745;28;20201;-49
2023/12/28 05:46:52;;;;;;;4.27;2.00;;;15.40;67.50;16.30;100466.00;;;;5074681;28;20197;-49
2023/12/28 05:49:18;;;;;;;4.10;1.80;;;15.30;67.40;16.30;100466.00;;;;5075173;28;20243;-50
2023/12/28 05:51:44;;;;;;;8.07;2.20;;;15.30;67.60;16.20;100464.00;;;;5078833;28;20262;-49
2023/12/28 05:54:09;;;;;;;3.33;1.97;;;15.30;67.70;16.20;100477.00;;;;5079163;28;20269;-49
2023/12/28 05:56:35;;;;;;;3.40;1.97;;;15.30;67.60;16.30;100479.00;;;;5075902;28;20179;-49
2023/12/28 05:59:01;;;;;;;4.60;1.90;;;15.30;67.60;16.20;100481.00;;;;5076377;28;20170;-49
2023/12/28 06:01:27;;;;;;;3.93;2.10;;;15.30;67.60;16.20;100416.00;;;;5074737;28;20279;-49
2023/12/28 06:03:53;;;;;;;5.50;1.77;;;15.30;67.70;16.20;100503.00;;;;5049450;28;20192;-49
2023/12/28 06:06:20;;;;;;;5.40;2.27;;;15.30;67.80;16.20;100497.00;;;;5074400;28;20184;-49
2023/12/28 06:08:46;;;;;;;4.20;2.00;;;15.30;67.80;16.20;100495.00;;;;5078465;28;20193;-49
2023/12/28 06:11:11;;;;;;;4.17;2.07;;;15.30;67.70;16.20;100498.00;;;;5078497;28;20219;-49
2023/12/28 06:13:37;;;;;;;2.50;1.93;;;15.30;67.80;16.20;100492.00;;;;5071327;28;20201;-49
2023/12/28 06:16:03;;;;;;;3.63;1.93;;;15.30;67.70;16.20;100495.00;;;;5078370;28;20360;-49
2023/12/28 06:18:29;;;;;;;5.90;2.17;;;15.30;67.70;16.20;100495.00;;;;5074636;28;20247;-48
2023/12/28 06:20:55;;;;;;;4.50;2.10;;;15.30;67.70;16.20;100480.00;;;;5074552;28;20197;-49
2023/12/28 06:23:20;;;;;;;3.47;2.03;;;15.30;67.70;16.20;100491.00;;;;5074696;28;20182;-48
2023/12/28 06:25:46;;;;;;;2.33;1.80;;;15.30;67.70;16.20;100501.00;;;;5084741;28;20212;-48
2023/12/28 06:28:12;;;;;;;4.70;2.00;;;15.30;67.70;16.20;100489.00;;;;5077786;28;20165;-48
2023/12/28 06:30:39;;;;;;;3.13;1.90;;;15.30;67.80;16.20;100498.00;;;;5069165;28;20240;-48
2023/12/28 06:33:05;;;;;;;3.37;1.70;;;15.30;67.80;16.20;100490.00;;;;5078389;28;20739;-48
2023/12/28 06:35:31;;;;;;;4.43;1.90;;;15.30;67.80;16.20;100504.00;;;;5068783;28;20264;-48
2023/12/28 06:37:56;;;;;;;2.67;1.80;;;15.40;68.00;16.20;100496.00;;;;5078147;28;20185;-48
2023/12/28 06:40:22;;;;;;;3.57;1.77;;;15.30;68.00;16.20;100495.00;;;;5081653;28;20213;-48
2023/12/28 06:42:48;;;;;;;2.33;1.73;;;15.30;68.00;16.20;100505.00;;;;5080160;28;20234;-48
2023/12/28 06:45:14;;;;;;;3.37;2.10;;;15.30;67.90;16.20;100493.00;;;;5078525;28;20177;-49
2023/12/28 06:47:39;;;;;;;2.00;1.73;;;15.30;67.90;16.20;100500.00;;;;5070798;28;20181;-48
2023/12/28 06:50:06;;;;;;;2.73;2.00;;;15.30;68.00;16.20;100485.00;;;;5077975;28;20706;-49
2023/12/28 06:52:32;;;;;;;4.13;1.97;;;15.30;68.00;16.20;100490.00;;;;5077675;28;20225;-49
2023/12/28 06:54:58;;;;;;;1.93;1.70;;;15.30;68.20;16.20;100499.00;;;;5081004;28;20212;-49
2023/12/28 06:57:24;;;;;;;1.90;1.70;;;15.20;68.10;16.20;100493.00;;;;5076095;28;20177;-49
2023/12/28 06:59:50;;;;;;;4.77;2.00;;;15.20;68.10;16.10;100472.00;;;;5078278;28;20188;-50
2023/12/28 07:02:16;;;;;;;5.10;1.90;;;15.20;68.30;16.20;100491.00;;;;5053100;28;20231;-49
2023/12/28 07:04:41;;;;;;;5.63;2.10;;;15.20;68.20;16.20;100496.00;;;;5075086;28;20196;-49
2023/12/28 07:07:07;;;;;;;2.27;1.70;;;15.20;68.00;16.20;100493.00;;;;5078310;28;20187;-62
2023/12/28 07:09:33;;;;;;;3.67;1.80;;;15.20;68.00;16.20;100503.00;;;;5085838;28;20661;-56
2023/12/28 07:11:59;;;;;;;3.23;1.90;;;15.20;68.00;16.20;100505.00;;;;5087377;28;20204;-49
2023/12/28 07:14:25;;;;;;;3.27;1.70;;;15.20;68.00;16.20;100503.00;;;;5060130;28;20208;-48
2023/12/28 07:16:50;;;;;;;2.17;1.87;;;15.20;68.00;16.20;100512.00;;;;5074334;28;20174;-49
2023/12/28 07:19:16;;;;;;;2.87;1.90;;;15.20;68.10;16.20;100503.00;;;;5073342;28;20189;-49
2023/12/28 07:21:42;;;;;;;2.50;1.90;;;15.20;68.20;16.10;100498.00;;;;5077599;28;20198;-49
2023/12/28 07:24:08;;;;;;;2.40;1.80;;;15.20;68.20;16.10;100508.00;;;;5077699;28;20185;-49
2023/12/28 07:26:33;;;;;;;2.30;1.80;;;15.20;68.20;16.10;100476.00;;;;5073536;28;20726;-49
2023/12/28 07:28:59;;;;;;;3.80;1.87;;;15.20;68.20;16.10;100516.00;;;;5073541;28;20223;-49
2023/12/28 07:31:25;;;;;;;3.03;2.10;;;15.20;68.20;16.10;100511.00;;;;5076123;28;20339;-49
2023/12/28 07:33:51;;;;;;;2.50;1.90;;;15.20;68.20;16.10;100526.00;;;;5081258;28;20283;-49
2023/12/28 07:36:17;;;;;;;1.93;1.70;;;15.20;68.20;16.10;100517.00;;;;5078636;28;20595;-49
2023/12/28 07:38:44;;;;;;;2.73;1.60;;;15.20;68.20;16.10;100524.00;;;;5080359;28;20680;-49
2023/12/28 07:41:09;;;;;;;2.20;1.90;;;15.20;68.20;16.10;100517.00;;;;5081283;28;20212;-49
2023/12/28 07:43:36;;;;;;;3.33;1.70;;;15.20;68.30;16.10;100529.00;;;;5076760;28;20174;-49
2023/12/28 07:46:02;;;;;;;2.73;1.83;;;15.20;68.30;16.10;100530.00;;;;5077509;28;20709;-49
2023/12/28 07:48:30;;;;;;;1.80;1.70;;;15.20;68.30;16.10;100539.00;;;;5078176;28;20235;-48
2023/12/28 07:50:56;;;;;;;2.23;1.73;;;15.20;68.30;16.10;100537.00;;;;5080885;28;20205;-48
2023/12/28 07:53:22;;;;;;;1.80;1.70;;;15.10;68.30;16.10;100545.00;;;;5055339;28;20178;-49
2023/12/28 07:55:48;;;;;;;2.73;1.80;;;15.10;68.30;16.10;100553.00;;;;5061477;28;20185;-49
2023/12/28 07:58:14;;;;;;;3.33;2.17;;;15.10;68.30;16.10;100559.00;;;;5076514;28;20244;-49
2023/12/28 08:00:40;;;;;;;2.80;1.80;;;15.20;68.50;16.10;100551.00;;;;5076059;28;20209;-48
2023/12/28 08:03:06;;;;;;;1.70;1.60;;;15.20;68.40;16.10;100550.00;;;;5077145;28;20173;-49
2023/12/28 08:05:32;;;;;;;2.00;1.80;;;15.20;68.40;16.10;100563.00;;;;5078563;28;20271;-48
2023/12/28 08:07:57;;;;;;;1.80;1.70;;;15.10;68.30;16.10;100553.00;;;;5063884;28;20243;-48
2023/12/28 08:10:23;;;;;;;2.17;1.80;;;15.10;68.30;16.10;100557.00;;;;5067971;28;20564;-49
2023/12/28 08:12:49;;;;;;;2.57;1.80;;;15.20;68.40;16.10;100559.00;;;;5075764;28;20216;-50
2023/12/28 08:15:14;;;;;;;1.77;1.67;;;15.10;68.40;16.10;100563.00;;;;5078012;28;20212;-49
2023/12/28 08:17:40;;;;;;;2.33;2.00;;;15.20;68.50;16.10;100562.00;;;;5070716;28;20185;-49
2023/12/28 08:20:07;;;;;;;1.80;1.70;;;15.10;68.40;16.10;100563.00;;;;5078135;28;20184;-48
2023/12/28 08:22:33;;;;;;;3.10;1.70;;;15.10;68.50;16.10;100568.00;;;;5075429;28;20231;-49
2023/12/28 08:24:59;;;;;;;1.63;1.50;;;15.10;68.60;16.00;100564.00;;;;5074987;28;20217;-49
2023/12/28 08:27:24;;;;;;;1.73;1.57;;;15.10;68.50;16.10;100570.00;;;;5067278;28;20220;-49
2023/12/28 08:29:50;;;;;;;1.70;1.60;;;15.10;68.40;16.00;100560.00;;;;5069250;28;20657;-50
2023/12/28 08:32:17;;;;;;;2.37;1.93;;;15.10;68.60;16.00;100562.00;;;;5075818;28;20189;-49
2023/12/28 08:34:43;;;;;;;3.00;1.80;;;15.10;68.70;16.00;100571.00;;;;5080239;28;20209;-49
2023/12/28 08:37:09;;;;;;;2.83;1.80;;;15.10;69.10;16.00;100566.00;;;;5053560;28;20208;-49
2023/12/28 08:39:34;;;;;;;1.93;1.73;;;15.10;68.80;16.10;100568.00;;;;5077267;28;20182;-49
2023/12/28 08:42:00;;;;;;;1.73;1.60;;;15.10;68.70;16.10;100558.00;;;;5081205;28;20345;-48
2023/12/28 08:44:26;;;;;;;2.47;1.73;;;15.10;68.80;16.00;100552.00;;;;5082516;28;20646;-49
2023/12/28 08:46:51;;;;;;;4.50;2.10;;;15.10;69.10;16.00;100555.00;;;;5086073;28;21008;-48
2023/12/28 08:49:17;;;;;;;3.03;1.90;;;15.10;70.10;16.10;100568.00;;;;5076319;28;20212;-49
2023/12/28 08:51:43;;;;;;;2.40;1.90;;;15.20;69.40;16.10;100561.00;;;;5076057;28;20285;-49
2023/12/28 08:54:09;;;;;;;3.80;1.90;;;15.30;69.50;16.10;100581.00;;;;5050165;28;20213;-48
2023/12/28 08:56:35;;;;;;;3.03;1.70;;;15.30;69.30;16.20;100502.00;;;;5074962;28;20187;-48
2023/12/28 08:59:01;;;;;;;2.27;1.97;;;15.40;69.30;16.20;100568.00;;;;5090331;28;20193;-52
2023/12/28 09:01:26;;;;;;;2.80;1.90;;;15.50;69.20;16.30;100586.00;;;;5080041;28;20201;-53
2023/12/28 09:03:53;;;;;;;2.73;1.90;;;15.60;69.00;16.40;100578.00;;;;5081392;28;20181;-48
2023/12/28 09:06:19;;;;;;;2.00;1.80;;;15.80;69.00;16.40;100567.00;;;;5070323;28;20196;-49
2023/12/28 09:08:47;;;;;;;2.90;1.90;;;15.90;69.10;16.50;100577.00;;;;5078196;28;20256;-49
2023/12/28 09:11:13;;;;;;;2.97;1.80;;;16.10;68.60;16.60;100575.00;;;;5077956;28;20662;-49
2023/12/28 09:13:39;;;;;;;1.80;1.70;;;16.20;68.50;16.70;100576.00;;;;5074439;28;20202;-49
2023/12/28 09:16:07;;;;;;;1.97;1.80;;;16.40;68.30;16.80;100576.00;;;;5075665;28;20271;-49
2023/12/28 09:18:33;;;;;;;2.27;2.00;;;16.50;68.10;17.00;100580.00;;;;5076462;28;20554;-48
2023/12/28 09:20:59;;;;;;;2.67;1.90;;;16.60;68.00;17.10;100575.00;;;;5078409;28;20204;-48
2023/12/28 09:23:24;;;;;;;1.77;1.67;;;16.70;67.70;17.20;100573.00;;;;5075459;28;20668;-50
2023/12/28 09:25:50;;;;;;;2.40;1.70;;;16.90;67.60;17.30;100579.00;;;;5080762;28;20657;-48
2023/12/28 09:28:16;;;;;;;1.93;1.70;;;17.00;67.40;17.40;100589.00;;;;5075040;28;20226;-49
2023/12/28 09:30:42;;;;;;;2.97;1.80;;;17.20;67.50;17.50;100582.00;;;;5073306;28;20209;-49
2023/12/28 09:33:07;;;;;;;3.03;1.50;;;17.20;68.00;17.60;100578.00;;;;5074606;28;20233;-49
2023/12/28 09:35:33;;;;;;;1.70;1.60;;;17.30;68.00;17.70;100587.00;;;;5067721;28;20625;-48
2023/12/28 09:37:59;;;;;;;1.80;1.70;;;17.40;68.10;17.80;100588.00;;;;5077761;28;20187;-48
2023/12/28 09:40:25;;;;;;;1.80;1.70;;;17.50;68.20;17.90;100590.00;;;;5074346;28;20223;-49
2023/12/28 09:43:09;;;;;;;5.17;1.73;;;17.60;68.20;18.00;100582.00;;;;5074566;28;20771;-48
2023/12/28 09:45:35;;;;;;;1.97;1.70;;;17.70;68.00;18.10;100587.00;;;;5050777;28;20208;-48
2023/12/28 09:48:02;;;;;;;2.43;1.70;;;17.80;67.80;18.20;100593.00;;;;5078057;28;20192;-48
2023/12/28 09:50:28;;;;;;;1.93;1.73;;;17.80;67.60;18.20;100589.00;;;;5052548;28;20192;-49
2023/12/28 09:52:54;;;;;;;5.57;1.70;;;17.90;67.70;18.30;100597.00;;;;5074562;28;20185;-49
2023/12/28 09:55:20;;;;;;;5.73;1.97;;;17.90;67.60;18.30;100592.00;;;;5073325;28;20255;-49
2023/12/28 09:57:46;;;;;;;3.30;1.80;;;17.90;67.60;18.40;100606.00;;;;5081507;28;20188;-49
2023/12/28 10:00:12;;;;;;;5.17;1.93;;;18.00;68.70;18.40;100608.00;;;;5042796;28;20209;-49
2023/12/28 10:02:40;;;;;;;4.13;1.70;;;17.90;68.20;18.50;100603.00;;;;5057780;28;20190;-49
2023/12/28 10:05:07;;;;;;;2.80;1.67;;;17.90;68.70;18.50;100592.00;;;;5025678;28;20174;-51
2023/12/28 10:07:32;;;;;;;2.90;1.73;;;17.90;69.00;18.50;100577.00;;;;5074486;28;20625;-49
2023/12/28 10:09:58;;;;;;;3.57;1.80;;;17.90;69.00;18.50;100571.00;;;;5072433;28;20181;-50
2023/12/28 10:12:27;;;;;;;7.03;2.03;;;17.90;69.00;18.50;100571.00;;;;5080142;28;20755;-49
2023/12/28 10:14:53;;;;;;;4.83;1.80;;;17.90;69.20;18.50;100567.00;;;;5054590;28;20283;-50
2023/12/28 10:17:19;;;;;;;4.13;1.83;;;17.90;69.30;18.50;100551.00;;;;5074071;28;20184;-49
2023/12/28 10:19:47;;;;;;;4.20;2.00;;;17.80;69.20;18.50;100577.00;;;;5079459;28;20195;-49
2023/12/28 10:22:13;;;;;;;4.73;1.97;;;17.90;69.60;18.50;100574.00;;;;5072661;28;20201;-49
2023/12/28 10:24:43;;;;;;;2.47;1.80;;;17.80;69.70;18.50;100573.00;;;;5035091;28;20185;-49
2023/12/28 10:27:08;;;;;;;3.10;1.80;;;17.80;70.60;18.50;100563.00;;;;5081804;28;20181;-50
2023/12/28 10:29:34;;;;;;;5.67;2.30;;;17.80;71.00;18.50;100563.00;;;;5055929;28;20234;-51
2023/12/28 10:32:00;;;;;;;3.90;2.10;;;17.80;71.20;18.50;100552.00;;;;5078131;28;21009;-49
2023/12/28 10:34:26;;;;;;;3.97;1.90;;;17.80;71.20;18.50;100559.00;;;;5074383;28;20213;-49
2023/12/28 10:36:52;;;;;;;2.83;1.90;;;17.80;70.80;18.50;100546.00;;;;5061209;28;20157;-49
2023/12/28 10:39:19;;;;;;;4.63;1.90;;;17.70;70.60;18.50;100558.00;;;;5090134;28;20192;-50
2023/12/28 10:41:45;;;;;;;4.20;1.77;;;17.70;71.50;18.50;100546.00;;;;5071085;28;20214;-49